createdAt,value
2019-04-29T00:03:18.438Z,7.50
2019-04-29T00:08:37.031Z,7.17
2019-04-29T00:13:55.945Z,8.77
2019-04-29T00:19:22.046Z,8.83
2019-04-29T00:24:40.684Z,8.20
2019-04-29T00:29:59.324Z,9.10
2019-04-29T00:35:17.960Z,9.25
2019-04-29T00:40:38.170Z,9.40
2019-04-29T00:45:56.861Z,9.50
2019-04-29T00:51:15.528Z,8.60
2019-04-29T00:56:34.256Z,9.27
2019-04-29T01:01:53.049Z,8.07
2019-04-29T01:07:11.758Z,11.73
2019-04-29T01:12:30.394Z,11.53
2019-04-29T01:17:49.016Z,11.13
2019-04-29T01:23:07.652Z,12.07
2019-04-29T01:28:27.924Z,13.40
2019-04-29T01:33:48.216Z,14.77
2019-04-29T01:39:09.216Z,14.83
2019-04-29T01:44:29.427Z,13.40
2019-04-29T01:49:48.009Z,14.70
2019-04-29T01:55:06.858Z,13.90
2019-04-29T02:00:25.499Z,11.87
2019-04-29T02:05:44.333Z,12.83
2019-04-29T02:11:03.081Z,12.30
2019-04-29T02:16:21.864Z,14.55
2019-04-29T02:21:41.960Z,15.20
2019-04-29T02:27:00.512Z,19.73
2019-04-29T02:32:19.197Z,19.90
2019-04-29T02:37:39.338Z,17.15
2019-04-29T02:42:59.548Z,13.97
2019-04-29T02:48:18.111Z,15.43
2019-04-29T02:53:36.675Z,14.40
2019-04-29T02:58:59.816Z,14.60
2019-04-29T03:04:20.136Z,20.93
2019-04-29T03:09:45.479Z,19.27
2019-04-29T03:15:05.277Z,17.83
2019-04-29T03:20:28.567Z,15.40
2019-04-29T03:25:47.206Z,15.93
2019-04-29T03:31:05.832Z,20.20
2019-04-29T03:36:24.455Z,20.20
2019-04-29T03:41:43.410Z,17.00
2019-04-29T03:47:01.951Z,13.73
2019-04-29T03:52:20.458Z,15.97
2019-04-29T03:57:39.110Z,17.70
2019-04-29T04:02:59.341Z,16.67
2019-04-29T04:08:37.674Z,16.07
2019-04-29T04:13:56.241Z,14.80
2019-04-29T04:19:15.063Z,14.95
2019-04-29T04:24:33.632Z,17.40
2019-04-29T04:29:52.195Z,22.80
2019-04-29T04:35:11.213Z,21.97
2019-04-29T04:40:31.422Z,19.40
2019-04-29T04:45:50.000Z,18.17
2019-04-29T04:51:08.568Z,24.63
2019-04-29T04:56:27.146Z,23.37
2019-04-29T05:01:45.708Z,19.10
2019-04-29T05:07:04.281Z,17.87
2019-04-29T05:12:22.850Z,20.33
2019-04-29T05:17:41.542Z,20.20
2019-04-29T05:23:00.201Z,12.63
2019-04-29T05:28:18.760Z,11.18
2019-04-29T05:33:37.302Z,11.13
2019-04-29T05:38:57.503Z,7.95
2019-04-29T05:44:19.151Z,9.27
2019-04-29T05:49:45.669Z,8.53
2019-04-29T05:55:05.361Z,8.07
2019-04-29T06:00:24.310Z,8.97
2019-04-29T06:05:42.837Z,8.57
2019-04-29T06:11:01.411Z,8.37
2019-04-29T06:16:20.988Z,7.30
2019-04-29T06:21:40.227Z,7.97
2019-04-29T06:26:58.793Z,7.13
2019-04-29T06:32:20.265Z,7.70
2019-04-29T06:37:37.565Z,8.07
2019-04-29T06:42:56.044Z,9.10
2019-04-29T06:48:14.665Z,8.87
2019-04-29T06:53:33.208Z,9.33
2019-04-29T06:58:51.713Z,9.93
2019-04-29T07:04:10.249Z,10.13
2019-04-29T07:09:28.820Z,10.87
2019-04-29T07:14:47.413Z,10.63
2019-04-29T07:20:06.932Z,14.60
2019-04-29T07:25:28.742Z,14.67
2019-04-29T07:31:01.197Z,15.33
2019-04-29T07:36:11.112Z,14.77
2019-04-29T07:41:26.502Z,15.83
2019-04-29T07:46:56.774Z,15.07
2019-04-29T07:52:09.793Z,12.27
2019-04-29T07:57:27.472Z,15.03
2019-04-29T08:02:46.195Z,16.30
2019-04-29T08:08:05.314Z,14.95
2019-04-29T08:13:26.181Z,14.60
2019-04-29T08:18:44.750Z,13.57
2019-04-29T08:24:03.474Z,13.77
2019-04-29T08:29:22.051Z,11.80
2019-04-29T08:34:40.974Z,13.03
2019-04-29T08:40:15.122Z,13.40
2019-04-29T08:45:39.100Z,11.38
2019-04-29T08:50:57.779Z,12.05
2019-04-29T08:56:16.535Z,12.57
2019-04-29T09:01:35.810Z,12.77
2019-04-29T09:06:54.743Z,12.70
2019-04-29T09:12:13.569Z,13.00
2019-04-29T09:17:32.131Z,11.97
2019-04-29T09:22:55.123Z,12.43
2019-04-29T09:28:18.417Z,11.00
2019-04-29T09:33:35.504Z,10.80
2019-04-29T09:38:54.066Z,10.77
2019-04-29T09:44:30.670Z,10.07
2019-04-29T09:49:49.279Z,10.13
2019-04-29T09:55:08.586Z,10.43
2019-04-29T10:00:45.388Z,10.77
2019-04-29T10:06:20.950Z,9.20
2019-04-29T10:11:39.876Z,11.93
2019-04-29T10:17:15.415Z,10.87
2019-04-29T10:22:33.817Z,9.27
2019-04-29T10:27:52.533Z,10.00
2019-04-29T10:33:12.822Z,9.47
2019-04-29T10:38:32.699Z,9.27
2019-04-29T10:44:02.011Z,9.67
2019-04-29T10:49:22.850Z,12.47
2019-04-29T10:54:41.599Z,13.90
2019-04-29T11:00:11.319Z,15.30
2019-04-29T11:05:34.661Z,13.80
2019-04-29T11:11:02.166Z,12.77
2019-04-29T11:16:15.764Z,11.83
2019-04-29T11:21:34.705Z,9.90
2019-04-29T11:26:54.994Z,9.93
2019-04-29T11:32:15.994Z,9.00
2019-04-29T11:37:35.040Z,9.57
2019-04-29T11:42:53.684Z,9.63
2019-04-29T11:48:13.618Z,8.17
2019-04-29T11:53:32.513Z,7.60
2019-04-29T11:58:52.793Z,7.07
2019-04-29T12:04:13.174Z,6.77
2019-04-29T12:09:33.632Z,7.30
2019-04-29T12:14:56.658Z,6.40
2019-04-29T12:20:22.899Z,6.10
2019-04-29T12:25:41.757Z,6.13
2019-04-29T12:31:05.760Z,6.60
2019-04-29T12:36:22.995Z,6.20
2019-04-29T12:41:49.428Z,7.03
2019-04-29T12:47:25.896Z,6.17
2019-04-29T12:52:32.992Z,6.30
2019-04-29T12:57:55.335Z,6.63
2019-04-29T13:03:39.240Z,6.27
2019-04-29T13:08:52.958Z,6.60
2019-04-29T13:14:11.673Z,5.53
2019-04-29T13:19:32.093Z,5.57
2019-04-29T13:24:50.797Z,6.33
2019-04-29T13:30:16.047Z,6.60
2019-04-29T13:35:33.146Z,6.40
2019-04-29T13:41:11.512Z,5.97
2019-04-29T13:46:16.747Z,6.00
2019-04-29T13:51:37.033Z,5.80
2019-04-29T13:56:57.066Z,5.70
2019-04-29T14:02:22.244Z,6.13
2019-04-29T14:07:40.974Z,4.40
2019-04-29T14:13:09.632Z,5.03
2019-04-29T14:18:20.091Z,4.93
2019-04-29T14:23:38.759Z,4.27
2019-04-29T14:28:57.430Z,4.00
2019-04-29T14:34:20.359Z,3.87
2019-04-29T14:39:38.607Z,3.97
2019-04-29T14:44:58.905Z,3.73
2019-04-29T14:50:20.601Z,4.00
2019-04-29T14:55:38.465Z,3.70
2019-04-29T15:01:02.056Z,3.60
2019-04-29T15:06:21.139Z,4.47
2019-04-29T15:11:45.489Z,3.83
2019-04-29T15:17:03.786Z,3.17
2019-04-29T15:22:24.672Z,3.40
2019-04-29T15:27:43.428Z,3.77
2019-04-29T15:33:02.145Z,3.40
2019-04-29T15:38:20.781Z,3.40
2019-04-29T15:43:47.453Z,3.67
2019-04-29T15:49:01.436Z,3.00
2019-04-29T15:54:20.079Z,3.40
2019-04-29T15:59:48.639Z,3.20
2019-04-29T16:05:04.656Z,3.42
2019-04-29T16:10:58.025Z,3.70
2019-04-29T16:16:13.029Z,3.10
2019-04-29T16:21:38.884Z,3.53
2019-04-29T16:26:53.608Z,3.53
2019-04-29T16:32:14.209Z,3.80
2019-04-29T16:37:33.381Z,4.30
2019-04-29T16:43:08.503Z,4.37
2019-04-29T16:48:27.400Z,3.60
2019-04-29T16:53:46.343Z,4.03
2019-04-29T16:59:09.214Z,4.27
2019-04-29T17:04:25.439Z,4.53
2019-04-29T17:10:02.162Z,4.30
2019-04-29T17:15:25.491Z,4.93
2019-04-29T17:20:41.555Z,4.70
2019-04-29T17:26:00.262Z,5.10
2019-04-29T17:37:00.323Z,5.70
2019-04-29T17:42:18.957Z,6.00
2019-04-29T17:47:58.829Z,6.00
2019-04-29T17:53:25.366Z,5.47
2019-04-29T17:58:51.328Z,5.93
2019-04-29T18:04:16.664Z,7.20
2019-04-29T18:09:36.661Z,6.87
2019-04-29T18:14:55.441Z,6.93
2019-04-29T18:20:17.670Z,7.92
2019-04-29T18:25:44.844Z,8.10
2019-04-29T18:31:05.925Z,10.07
2019-04-29T18:36:26.643Z,8.40
2019-04-29T18:41:44.982Z,9.70
2019-04-29T18:47:05.513Z,9.40
2019-04-29T18:52:27.891Z,10.00
2019-04-29T18:57:44.365Z,10.27
2019-04-29T19:03:03.114Z,9.40
2019-04-29T19:08:23.411Z,10.47
2019-04-29T19:13:43.523Z,10.70
2019-04-29T19:19:02.729Z,11.63
2019-04-29T19:24:21.248Z,12.77
2019-04-29T19:29:43.227Z,12.60
2019-04-29T19:35:00.264Z,14.27
2019-04-29T19:40:18.918Z,14.87
2019-04-29T19:45:37.910Z,15.47
2019-04-29T19:51:13.982Z,16.57
2019-04-29T19:56:23.370Z,15.97
2019-04-29T20:01:38.255Z,16.93
2019-04-29T20:07:05.649Z,17.13
2019-04-29T20:12:18.197Z,17.57
2019-04-29T20:17:57.793Z,15.67
2019-04-29T20:23:24.915Z,15.80
2019-04-29T20:28:36.994Z,15.25
2019-04-29T20:33:58.485Z,15.93
2019-04-29T20:39:23.078Z,15.10
2019-04-29T20:44:37.036Z,14.33
2019-04-29T20:49:57.156Z,13.10
2019-04-29T20:55:16.087Z,12.13
2019-04-29T21:00:38.003Z,11.80
2019-04-29T21:06:02.694Z,12.67
2019-04-29T21:11:30.467Z,13.60
2019-04-29T21:16:50.648Z,12.47
2019-04-29T21:22:12.900Z,15.97
2019-04-29T21:27:29.649Z,13.90
2019-04-29T21:32:48.368Z,16.67
2019-04-29T21:38:08.564Z,16.80
2019-04-29T21:43:28.793Z,14.50
2019-04-29T21:48:47.338Z,17.03
2019-04-29T21:54:09.710Z,16.20
2019-04-29T21:59:26.419Z,18.47
2019-04-29T22:04:46.990Z,18.77
2019-04-29T22:10:08.706Z,19.48
2019-04-29T22:15:32.751Z,17.87
2019-04-29T22:20:47.786Z,18.57
2019-04-29T22:26:06.532Z,17.93
2019-04-29T22:31:28.388Z,16.77
2019-04-29T22:36:48.268Z,17.37
2019-04-29T22:42:07.510Z,17.67
2019-04-29T22:47:26.064Z,18.87
2019-04-29T22:52:45.320Z,17.80
2019-04-29T22:58:08.597Z,18.70
2019-04-29T23:03:24.341Z,17.47
2019-04-29T23:08:44.900Z,20.00
2019-04-29T23:14:06.614Z,19.37
2019-04-29T23:19:25.803Z,19.90
2019-04-29T23:24:55.778Z,20.67
2019-04-29T23:30:17.997Z,19.95
2019-04-29T23:35:39.824Z,20.03
2019-04-29T23:40:57.717Z,20.60
2019-04-29T23:46:16.342Z,21.07
2019-04-29T23:51:37.794Z,20.27
2019-04-29T23:57:02.797Z,20.87
